createdAt,value
2023-01-11T00:04:40.553Z,10.11
2023-01-11T00:09:42.084Z,10.05
2023-01-11T00:14:43.588Z,9.86
2023-01-11T00:19:45.090Z,9.85
2023-01-11T00:24:46.566Z,10.30
2023-01-11T00:29:48.049Z,9.91
2023-01-11T00:34:49.559Z,10.16
2023-01-11T00:39:51.542Z,10.16
2023-01-11T00:45:11.279Z,10.64
2023-01-11T00:50:12.748Z,10.43
2023-01-11T00:55:14.232Z,10.36
2023-01-11T01:00:15.887Z,10.12
2023-01-11T01:05:17.650Z,10.12
2023-01-11T01:10:19.347Z,10.69
2023-01-11T01:15:20.845Z,10.30
2023-01-11T01:20:23.141Z,10.55
2023-01-11T01:25:24.620Z,10.90
2023-01-11T01:30:26.082Z,10.95
2023-01-11T01:35:27.548Z,10.68
2023-01-11T01:40:29.025Z,10.91
2023-01-11T01:45:30.493Z,11.26
2023-01-11T01:50:34.607Z,11.38
2023-01-11T01:55:38.059Z,11.57
2023-01-11T02:00:40.664Z,11.59
2023-01-11T02:05:42.146Z,11.57
2023-01-11T02:10:43.597Z,11.87
2023-01-11T02:15:45.073Z,11.67
2023-01-11T02:21:04.368Z,11.77
2023-01-11T02:26:30.349Z,12.04
2023-01-11T02:31:41.827Z,12.28
2023-01-11T02:37:10.923Z,12.14
2023-01-11T02:42:55.386Z,11.97
2023-01-11T02:48:00.400Z,12.24
2023-01-11T02:53:08.726Z,12.07
2023-01-11T02:58:11.312Z,12.09
2023-01-11T03:03:16.389Z,11.80
2023-01-11T03:08:35.920Z,12.46
2023-01-11T03:13:54.912Z,12.19
2023-01-11T03:19:34.446Z,12.12
2023-01-11T03:25:01.745Z,11.98
2023-01-11T03:30:11.599Z,12.08
2023-01-11T03:35:15.710Z,12.52
2023-01-11T03:40:25.680Z,12.30
2023-01-11T03:45:27.192Z,12.17
2023-01-11T03:50:28.654Z,12.31
2023-01-11T03:55:30.507Z,12.30
2023-01-11T04:00:32.029Z,12.49
2023-01-11T04:05:34.101Z,12.22
2023-01-11T04:10:35.569Z,11.49
2023-01-11T04:15:37.087Z,12.41
2023-01-11T04:20:40.111Z,11.97
2023-01-11T04:25:41.591Z,12.32
2023-01-11T04:30:43.064Z,12.28
2023-01-11T04:35:44.878Z,12.43
2023-01-11T04:40:47.667Z,12.41
2023-01-11T04:45:49.578Z,12.97
2023-01-11T04:50:51.137Z,12.51
2023-01-11T04:55:53.530Z,12.16
2023-01-11T05:00:55.004Z,12.47
2023-01-11T05:06:00.246Z,12.51
2023-01-11T05:11:03.755Z,12.48
2023-01-11T05:16:05.471Z,13.04
2023-01-11T05:21:07.371Z,12.64
2023-01-11T05:26:10.343Z,12.02
2023-01-11T05:31:11.872Z,12.47
2023-01-11T05:36:16.711Z,12.03
2023-01-11T05:41:19.258Z,12.57
2023-01-11T05:46:21.757Z,11.51
2023-01-11T05:51:23.223Z,12.65
2023-01-11T05:56:24.789Z,12.80
2023-01-11T06:01:26.335Z,12.48
2023-01-11T06:06:27.863Z,12.12
2023-01-11T06:11:29.354Z,12.73
2023-01-11T06:16:30.871Z,12.91
2023-01-11T06:21:32.358Z,12.82
2023-01-11T06:26:33.816Z,12.48
2023-01-11T06:31:35.315Z,12.37
2023-01-11T06:36:36.783Z,12.48
2023-01-11T06:41:38.233Z,12.74
2023-01-11T06:46:39.777Z,12.28
2023-01-11T06:51:41.257Z,12.07
2023-01-11T06:56:42.758Z,12.48
2023-01-11T07:01:44.303Z,12.76
2023-01-11T07:06:45.801Z,12.18
2023-01-11T07:11:47.278Z,12.18
2023-01-11T07:16:48.746Z,12.04
2023-01-11T07:21:50.223Z,12.12
2023-01-11T07:26:52.564Z,11.72
2023-01-11T07:31:54.047Z,12.24
2023-01-11T07:36:55.510Z,12.36
2023-01-11T07:42:15.419Z,12.71
2023-01-11T07:47:16.880Z,12.35
2023-01-11T07:52:18.781Z,12.17
2023-01-11T07:57:20.297Z,12.55
2023-01-11T08:02:21.793Z,12.82
2023-01-11T08:07:23.273Z,13.02
2023-01-11T08:12:43.341Z,12.85
2023-01-11T08:17:44.862Z,12.98
2023-01-11T08:22:46.490Z,12.99
2023-01-11T08:27:47.965Z,12.74
2023-01-11T08:32:49.491Z,12.99
2023-01-11T08:37:50.977Z,13.04
2023-01-11T08:42:58.747Z,13.00
2023-01-11T08:48:00.228Z,13.39
2023-01-11T08:53:01.727Z,12.96
2023-01-11T08:58:03.200Z,12.19
2023-01-11T09:03:04.702Z,11.30
2023-01-11T09:08:06.453Z,12.50
2023-01-11T09:13:07.906Z,11.29
2023-01-11T09:18:09.432Z,11.33
2023-01-11T09:23:10.964Z,12.49
2023-01-11T09:28:12.421Z,12.11
2023-01-11T09:33:13.897Z,12.33
2023-01-11T09:38:15.388Z,12.48
2023-01-11T09:43:16.859Z,12.33
2023-01-11T09:48:28.748Z,12.00
2023-01-11T09:53:34.921Z,11.90
2023-01-11T09:58:50.964Z,11.72
2023-01-11T10:04:33.320Z,11.94
2023-01-11T10:18:32.895Z,12.14
2023-01-11T10:20:40.895Z,12.86
2023-01-11T10:25:50.184Z,12.18
2023-01-11T10:30:57.243Z,12.32
2023-01-11T10:36:28.656Z,12.78
2023-01-11T10:41:52.213Z,12.91
2023-01-11T10:46:53.766Z,12.90
2023-01-11T10:51:57.635Z,12.75
2023-01-11T10:57:26.757Z,12.00
2023-01-11T11:02:46.623Z,12.30
2023-01-11T11:08:06.397Z,12.08
2023-01-11T11:13:23.799Z,11.74
2023-01-11T11:18:25.320Z,11.70
2023-01-11T11:23:28.593Z,11.98
2023-01-11T11:28:31.377Z,12.40
2023-01-11T11:33:39.883Z,12.81
2023-01-11T11:38:42.442Z,12.19
2023-01-11T11:43:45.010Z,12.91
2023-01-11T11:49:13.091Z,13.14
2023-01-11T11:54:34.120Z,13.00
2023-01-11T11:59:35.589Z,13.42
2023-01-11T12:04:49.000Z,13.38
2023-01-11T12:09:57.203Z,13.38
2023-01-11T12:15:15.114Z,13.17
2023-01-11T12:20:19.216Z,13.09
2023-01-11T12:25:25.233Z,12.94
2023-01-11T12:30:44.882Z,12.79
2023-01-11T12:35:56.247Z,12.45
2023-01-11T12:41:09.934Z,12.42
2023-01-11T12:46:39.501Z,11.91
2023-01-11T12:52:06.947Z,11.63
2023-01-11T12:57:18.945Z,11.66
2023-01-11T13:02:28.626Z,11.84
2023-01-11T13:07:45.462Z,11.39
2023-01-11T13:12:54.331Z,11.36
2023-01-11T13:18:18.593Z,11.27
2023-01-11T13:23:34.347Z,11.94
2023-01-11T13:28:38.794Z,11.66
2023-01-11T13:33:42.633Z,12.20
2023-01-11T13:39:10.216Z,11.86
2023-01-11T13:44:20.939Z,11.37
2023-01-11T13:49:41.269Z,12.09
2023-01-11T13:55:27.627Z,11.93
2023-01-11T14:00:42.066Z,11.91
2023-01-11T14:06:18.739Z,11.85
2023-01-11T14:11:44.701Z,12.13
2023-01-11T14:17:04.047Z,11.24
2023-01-11T14:22:43.100Z,11.49
2023-01-11T14:28:07.923Z,11.51
2023-01-11T14:33:34.110Z,11.49
2023-01-11T14:39:01.769Z,11.67
2023-01-11T14:44:20.597Z,11.97
2023-01-11T14:49:33.399Z,12.25
2023-01-11T14:54:39.419Z,11.71
2023-01-11T14:59:40.954Z,12.01
2023-01-11T15:04:57.290Z,12.10
2023-01-11T15:10:04.168Z,11.88
2023-01-11T15:15:07.106Z,11.76
2023-01-11T15:20:12.904Z,11.64
2023-01-11T15:25:24.903Z,11.47
2023-01-11T15:30:29.253Z,11.37
2023-01-11T15:35:32.493Z,11.78
2023-01-11T15:40:36.809Z,11.89
2023-01-11T15:46:31.005Z,11.37
2023-01-11T15:51:58.140Z,11.72
2023-01-11T15:57:11.705Z,11.94
2023-01-11T16:02:13.036Z,11.74
2023-01-11T16:07:26.510Z,11.88
2023-01-11T16:12:52.578Z,11.96
2023-01-11T16:17:54.086Z,11.88
2023-01-11T16:23:00.097Z,11.89
2023-01-11T16:28:01.633Z,11.98
2023-01-11T16:33:26.308Z,11.72
2023-01-11T16:38:27.763Z,11.98
2023-01-11T16:43:29.796Z,11.65
2023-01-11T16:48:31.284Z,11.67
2023-01-11T16:53:33.666Z,11.68
2023-01-11T16:58:37.917Z,11.41
2023-01-11T17:03:53.062Z,11.32
2023-01-11T17:08:56.398Z,11.77
2023-01-11T17:14:09.101Z,11.64
2023-01-11T17:19:20.329Z,11.95
2023-01-11T17:24:26.899Z,11.63
2023-01-11T17:29:40.218Z,11.96
2023-01-11T17:34:41.719Z,12.02
2023-01-11T17:39:50.466Z,11.67
2023-01-11T17:45:11.806Z,11.29
2023-01-11T17:50:28.425Z,11.75
2023-01-11T17:55:29.989Z,11.56
2023-01-11T18:00:31.497Z,11.43
2023-01-11T18:05:32.993Z,11.30
2023-01-11T18:10:36.214Z,11.72
2023-01-11T18:15:37.774Z,11.89
2023-01-11T18:20:39.364Z,11.52
2023-01-11T18:25:41.422Z,11.95
2023-01-11T18:30:47.257Z,11.68
2023-01-11T18:35:50.374Z,11.94
2023-01-11T18:40:51.877Z,11.73
2023-01-11T18:45:53.407Z,11.95
2023-01-11T18:50:55.439Z,12.31
2023-01-11T18:55:56.901Z,12.17
2023-01-11T19:01:00.142Z,11.95
2023-01-11T19:06:01.634Z,12.00
2023-01-11T19:11:03.976Z,11.69
2023-01-11T19:16:06.010Z,12.02
2023-01-11T19:21:09.162Z,12.02
2023-01-11T19:26:10.671Z,11.54
2023-01-11T19:31:12.411Z,12.03
2023-01-11T19:36:13.910Z,11.97
2023-01-11T19:41:16.706Z,12.12
2023-01-11T19:46:30.606Z,12.21
2023-01-11T19:51:33.258Z,12.45
2023-01-11T19:56:34.755Z,12.00
2023-01-11T20:01:36.427Z,12.35
2023-01-11T20:06:49.914Z,12.00
2023-01-11T20:11:53.147Z,11.75
2023-01-11T20:16:54.668Z,11.84
2023-01-11T20:21:56.467Z,11.83
2023-01-11T20:27:00.578Z,12.06
2023-01-11T20:32:21.198Z,11.82
2023-01-11T20:37:23.584Z,11.80
2023-01-11T20:42:25.071Z,12.00
2023-01-11T20:47:26.531Z,11.81
2023-01-11T20:52:28.015Z,12.09
2023-01-11T20:57:29.499Z,12.07
2023-01-11T21:02:31.040Z,12.16
2023-01-11T21:07:32.522Z,11.79
2023-01-11T21:12:33.988Z,11.74
2023-01-11T21:17:35.454Z,11.57
2023-01-11T21:22:36.907Z,11.55
2023-01-11T21:27:38.949Z,11.36
2023-01-11T21:32:40.441Z,11.23
2023-01-11T21:37:41.913Z,11.54
2023-01-11T21:42:43.376Z,11.42
2023-01-11T21:47:44.852Z,11.73
2023-01-11T21:52:46.319Z,10.96
2023-01-11T21:57:47.804Z,11.19
2023-01-11T22:02:49.999Z,11.41
2023-01-11T22:07:51.472Z,11.24
2023-01-11T22:12:53.128Z,10.53
2023-01-11T22:17:54.622Z,10.67
2023-01-11T22:22:56.098Z,10.37
2023-01-11T22:27:57.577Z,9.59
2023-01-11T22:32:59.566Z,9.54
2023-01-11T22:38:01.114Z,9.95
2023-01-11T22:43:02.583Z,9.45
2023-01-11T22:48:04.234Z,9.60
2023-01-11T22:53:05.690Z,9.57
2023-01-11T22:58:07.154Z,8.99
2023-01-11T23:03:08.791Z,9.00
2023-01-11T23:08:10.386Z,9.12
2023-01-11T23:13:30.135Z,10.06
2023-01-11T23:18:31.606Z,9.12
2023-01-11T23:23:33.078Z,9.54
2023-01-11T23:28:34.738Z,10.18
2023-01-11T23:33:37.558Z,10.10
2023-01-11T23:38:39.097Z,9.80
2023-01-11T23:43:40.585Z,10.06
2023-01-11T23:48:42.043Z,10.29
2023-01-11T23:53:43.567Z,10.29
2023-01-11T23:58:45.055Z,10.02
